Time;durP1;ratioP1;P1;durP2;ratioP2;P2;SDS_P1;SDS_P2;PMS_P1;PMS_P2;Temp;Humidity;BMP_temperature;BMP_pressure;BME280_temperature;BME280_humidity;BME280_pressure;Samples;Min_cycle;Max_cycle;Signal;HPM_P1;HPM_P2
2023/03/04 00:01:07;1020648.00;3.40;1769.08;93920.00;0.31;163.08;;;;;8.90;1.00;;;;;;2293067;60;1116;-85
2023/03/04 00:03:36;957286.00;3.19;1656.96;26841.00;0.09;47.11;;;;;9.00;1.00;;;;;;2293051;60;1131;-84
2023/03/04 00:06:03;1675652.00;5.59;2978.21;108302.00;0.36;187.90;;;;;9.20;1.00;;;;;;2292874;60;1922;-85
2023/03/04 00:08:30;1721567.00;5.74;3067.41;132692.00;0.44;229.97;;;;;9.40;1.00;;;;;;2293099;60;1270;-85
2023/03/04 00:10:58;1326904.00;4.42;2321.43;138265.00;0.46;239.58;;;;;9.40;1.00;;;;;;2293031;60;946;-85
2023/03/04 00:13:25;1251403.00;4.17;2183.44;112603.00;0.38;195.32;;;;;9.70;1.00;;;;;;2293026;60;1091;-85
2023/03/04 00:15:52;1334019.00;4.45;2334.50;137619.00;0.46;238.47;;;;;9.50;1.00;;;;;;2292983;60;2076;-85
2023/03/04 00:18:20;1139445.00;3.80;1981.11;99204.00;0.33;172.20;;;;;9.60;1.00;;;;;;2292978;60;1135;-86
2023/03/04 00:20:48;1273457.00;4.24;2223.61;146251.00;0.49;253.35;;;;;9.60;1.00;;;;;;2292888;60;1165;-85
2023/03/04 00:23:15;1671179.00;5.57;2969.56;162761.00;0.54;281.80;;;;;9.80;1.00;;;;;;2293064;60;1072;-85
2023/03/04 00:25:42;1739066.00;5.80;3101.58;117652.00;0.39;204.03;;;;;9.50;1.00;;;;;;2292922;60;1909;-85
2023/03/04 00:28:10;1500361.00;5.00;2643.80;203036.00;0.68;351.15;;;;;9.30;1.00;;;;;;2292991;60;1129;-86
2023/03/04 00:30:37;1396689.00;4.66;2450.18;177454.00;0.59;307.11;;;;;9.30;1.00;;;;;;2292843;60;1311;-86
2023/03/04 00:33:04;1281446.00;4.27;2238.19;120570.00;0.40;209.07;;;;;9.30;1.00;;;;;;2292886;60;1495;-85
2023/03/04 00:35:31;909960.00;3.03;1573.62;101049.00;0.34;175.38;;;;;8.80;1.00;;;;;;2293030;60;986;-86
2023/03/04 00:37:58;117980888.00;393.27;66522604.00;66753.00;0.22;116.15;;;;;8.70;1.00;;;;;;2292976;60;1099;-87
2023/03/04 00:40:25;609912.00;2.03;1051.34;106780.00;0.36;185.27;;;;;9.00;1.00;;;;;;2292933;60;1282;-86
2023/03/04 00:42:53;879263.00;2.93;1519.73;105146.00;0.35;182.45;;;;;9.10;1.00;;;;;;2292978;60;1000;-86
2023/03/04 00:45:21;684511.00;2.28;1180.39;99945.00;0.33;173.48;;;;;8.90;1.00;;;;;;2292904;60;1157;-85
2023/03/04 00:47:49;1059378.00;3.53;1837.93;87861.00;0.29;152.61;;;;;9.00;1.00;;;;;;2292945;60;1238;-85
2023/03/04 00:50:16;801772.00;2.67;1384.21;101652.00;0.34;176.42;;;;;8.80;1.00;;;;;;2292835;60;1615;-84
2023/03/04 00:52:43;1255844.00;4.19;2191.52;159727.00;0.53;276.57;;;;;8.80;1.00;;;;;;2292951;60;1236;-86
2023/03/04 00:55:10;962054.00;3.21;1665.38;115073.00;0.38;199.58;;;;;8.50;1.00;;;;;;2292956;60;1109;-86
2023/03/04 00:57:37;789436.00;2.63;1362.71;133950.00;0.45;232.14;;;;;8.10;1.00;;;;;;2292911;60;1103;-86
2023/03/04 01:00:06;859801.00;2.87;1485.62;107052.00;0.36;185.74;;;;;7.50;1.00;;;;;;2292875;60;1575;-86
2023/03/04 01:02:37;877566.00;2.93;1516.75;121113.00;0.40;210.00;;;;;7.00;1.00;;;;;;2292615;60;1019;-86
2023/03/04 01:05:04;902178.00;3.01;1559.95;97521.00;0.33;169.29;;;;;7.00;1.00;;;;;;2292861;60;982;-87
2023/03/04 01:07:31;1058379.00;3.53;1836.15;101117.00;0.34;175.50;;;;;7.50;1.00;;;;;;2292859;60;2006;-85
2023/03/04 01:09:58;661614.00;2.21;1140.73;95173.00;0.32;165.24;;;;;7.60;1.00;;;;;;2292757;60;1523;-87
2023/03/04 01:12:25;660304.00;2.20;1138.47;109723.00;0.37;190.35;;;;;7.70;1.00;;;;;;2292936;60;1015;-86
2023/03/04 01:14:52;971269.00;3.24;1681.65;144138.00;0.48;249.70;;;;;7.30;1.00;;;;;;2292872;60;1094;-85
2023/03/04 01:17:19;665152.00;2.22;1146.86;103841.00;0.35;180.20;;;;;7.60;1.00;;;;;;2292860;60;1122;-86
2023/03/04 01:19:47;1068511.00;3.56;1854.20;100858.00;0.34;175.05;;;;;7.80;1.00;;;;;;2292819;60;1364;-86
2023/03/04 01:22:15;675380.00;2.25;1164.57;106636.00;0.36;185.03;;;;;7.60;1.00;;;;;;2292771;60;2015;-85
2023/03/04 01:24:42;1125803.00;3.75;1956.63;158867.00;0.53;275.09;;;;;8.10;1.00;;;;;;2292803;60;1137;-86
2023/03/04 01:27:09;811689.00;2.71;1401.52;107723.00;0.36;186.90;;;;;7.90;1.00;;;;;;2292738;60;1988;-86
2023/03/04 01:29:36;931327.00;3.10;1611.21;105231.00;0.35;182.60;;;;;8.10;1.00;;;;;;2292774;60;1407;-86
2023/03/04 01:32:03;667693.00;2.23;1151.26;92060.00;0.31;159.86;;;;;8.00;1.00;;;;;;2292863;60;1009;-87
2023/03/04 01:34:30;118021584.00;393.41;66591532.00;82558.00;0.28;143.46;;;;;7.80;1.00;;;;;;2292795;60;1062;-86
2023/03/04 01:36:58;932659.00;3.11;1613.55;152166.00;0.51;263.54;;;;;7.80;1.00;;;;;;2292697;60;1613;-86
2023/03/04 01:39:25;727505.00;2.43;1254.97;98406.00;0.33;170.82;;;;;7.80;1.00;;;;;;2292754;60;1386;-85
2023/03/04 01:41:52;740651.00;2.47;1277.81;89880.00;0.30;156.10;;;;;6.90;1.00;;;;;;2292756;60;1109;-86
2023/03/04 01:44:19;785307.00;2.62;1355.51;75994.00;0.25;132.12;;;;;6.50;1.00;;;;;;2292791;60;985;-89
2023/03/04 01:46:50;841529.00;2.81;1453.65;126196.00;0.42;218.77;;;;;6.60;1.00;;;;;;2292633;60;2024;-87
2023/03/04 01:49:17;843905.00;2.81;1457.80;143509.00;0.48;248.62;;;;;6.50;1.00;;;;;;2292706;60;1349;-86
2023/03/04 01:51:48;996825.00;3.32;1726.85;108003.00;0.36;187.38;;;;;6.20;1.00;;;;;;2292801;60;990;-86
2023/03/04 01:54:16;643668.00;2.15;1109.68;90999.00;0.30;158.03;;;;;6.50;1.00;;;;;;2292737;60;1153;-86
2023/03/04 01:56:46;722734.00;2.41;1246.68;103650.00;0.35;179.87;;;;;6.90;1.00;;;;;;2292720;60;1812;-86
2023/03/04 01:59:15;1190895.00;3.97;2073.77;227227.00;0.76;392.78;;;;;6.90;1.00;;;;;;2292730;60;1382;-87
2023/03/04 02:01:44;791552.00;2.64;1366.39;83255.00;0.28;144.66;;;;;7.20;1.00;;;;;;2292744;60;949;-87
2023/03/04 02:04:12;583705.00;1.95;1006.09;7223.00;0.02;13.14;;;;;7.50;1.00;;;;;;2292727;60;1160;-86
2023/03/04 02:06:41;349027.00;1.16;602.19;0.00;0.00;0.62;;;;;6.80;1.00;;;;;;2292686;60;2102;-86
2023/03/04 02:09:09;934603.00;3.12;1616.98;14372.00;0.05;25.52;;;;;6.10;1.00;;;;;;2292684;60;1387;-86
2023/03/04 02:11:40;813133.00;2.71;1404.04;21988.00;0.07;38.71;;;;;6.10;1.00;;;;;;2292690;60;1117;-86
2023/03/04 02:14:07;567210.00;1.89;977.63;0.00;0.00;0.62;;;;;5.90;1.00;;;;;;2292642;60;1872;-87
2023/03/04 02:16:35;553724.00;1.85;954.38;20678.00;0.07;36.44;;;;;6.50;1.00;;;;;;2292720;60;1006;-86
2023/03/04 02:19:04;514331.00;1.71;886.50;0.00;0.00;0.62;;;;;6.50;1.00;;;;;;2292631;60;1277;-87
2023/03/04 02:21:33;449849.00;1.50;775.52;0.00;0.00;0.62;;;;;7.10;1.00;;;;;;2292593;60;1104;-86
2023/03/04 02:24:14;381185.00;1.27;657.46;15258.00;0.05;27.06;;;;;7.40;1.00;;;;;;2292625;60;943;-87
2023/03/04 02:26:42;505527.00;1.69;871.34;0.00;0.00;0.62;;;;;7.40;1.00;;;;;;2292684;60;1980;-86
2023/03/04 02:29:12;593577.00;1.98;1023.13;0.00;0.00;0.62;;;;;7.30;1.00;;;;;;2292600;60;1485;-87
2023/03/04 02:31:42;658809.00;2.20;1135.88;0.00;0.00;0.62;;;;;7.20;1.00;;;;;;2292591;60;1086;-86
2023/03/04 02:34:15;456601.00;1.52;787.14;0.00;0.00;0.62;;;;;7.20;1.00;;;;;;2292568;60;1141;-86
2023/03/04 02:36:44;641348.00;2.14;1105.67;0.00;0.00;0.62;;;;;7.60;1.00;;;;;;2292507;60;1415;-84
2023/03/04 02:39:15;623368.00;2.08;1074.59;26332.00;0.09;46.23;;;;;7.40;1.00;;;;;;2292295;60;1277;-85
2023/03/04 02:41:43;370842.00;1.24;639.68;0.00;0.00;0.62;;;;;7.20;1.00;;;;;;2292494;60;1070;-84
2023/03/04 02:44:17;353542.00;1.18;609.95;0.00;0.00;0.62;;;;;7.40;1.00;;;;;;2292552;60;1132;-86
2023/03/04 02:46:45;518162.00;1.73;893.10;0.00;0.00;0.62;;;;;7.10;1.00;;;;;;2292576;60;1906;-86
2023/03/04 02:49:12;529224.00;1.76;912.15;21858.00;0.07;38.49;;;;;7.20;1.00;;;;;;2292536;60;1274;-86
2023/03/04 02:51:39;117775248.00;392.58;66175064.00;0.00;0.00;0.62;;;;;7.10;1.00;;;;;;2292570;60;1439;-86
2023/03/04 02:54:15;357374.00;1.19;616.54;0.00;0.00;0.62;;;;;6.70;1.00;;;;;;2292600;60;1140;-86
2023/03/04 02:56:46;455574.00;1.52;785.37;10042.00;0.03;18.02;;;;;6.70;1.00;;;;;;2293346;60;1097;-86
2023/03/04 02:59:13;500734.00;1.67;863.09;28024.00;0.09;49.16;;;;;7.20;1.00;;;;;;2293242;60;1296;-86
2023/03/04 03:01:40;408671.00;1.36;704.71;0.00;0.00;0.62;;;;;7.30;1.00;;;;;;2293321;60;1121;-87
2023/03/04 03:04:07;470417.00;1.57;810.91;0.00;0.00;0.62;;;;;7.20;1.00;;;;;;2293280;60;1042;-86
2023/03/04 03:06:34;370769.00;1.24;639.56;0.00;0.00;0.62;;;;;7.00;1.00;;;;;;2293223;60;2000;-86
2023/03/04 03:09:01;281171.00;0.94;485.55;0.00;0.00;0.62;;;;;7.10;1.00;;;;;;2293244;60;1276;-85
2023/03/04 03:11:28;372449.00;1.24;642.45;0.00;0.00;0.62;;;;;7.20;1.00;;;;;;2293271;60;963;-85
2023/03/04 03:13:56;364689.00;1.22;629.11;8797.00;0.03;15.86;;;;;7.00;1.00;;;;;;2293271;60;1097;-87
2023/03/04 03:16:23;449239.00;1.50;774.47;0.00;0.00;0.62;;;;;7.00;1.00;;;;;;2293145;60;1709;-86
2023/03/04 03:18:50;382166.00;1.27;659.15;24179.00;0.08;42.51;;;;;7.10;1.00;;;;;;2293204;60;2108;-87
2023/03/04 03:21:17;117420808.00;391.40;65578868.00;21120.00;0.07;37.21;;;;;7.00;1.00;;;;;;2293164;60;1137;-86
2023/03/04 03:23:44;117570336.00;391.90;65829952.00;0.00;0.00;0.62;;;;;7.30;1.00;;;;;;2293218;60;1084;-86
2023/03/04 03:26:11;352608.00;1.18;608.34;0.00;0.00;0.62;;;;;7.20;1.00;;;;;;2293210;60;1125;-86
2023/03/04 03:28:38;256113.00;0.85;442.46;0.00;0.00;0.62;;;;;7.40;1.00;;;;;;2293130;60;1370;-87
2023/03/04 03:31:07;370129.00;1.23;638.46;0.00;0.00;0.62;;;;;7.80;1.00;;;;;;2293173;60;1134;-86
2023/03/04 03:33:34;422666.00;1.41;728.77;0.00;0.00;0.62;;;;;7.70;1.00;;;;;;2293189;60;1094;-85
2023/03/04 03:36:01;516683.00;1.72;890.55;0.00;0.00;0.62;;;;;7.70;1.00;;;;;;2293207;60;1111;-86
2023/03/04 03:38:27;402558.00;1.34;694.20;0.00;0.00;0.62;;;;;7.60;1.00;;;;;;2293070;60;1717;-86
2023/03/04 03:40:54;117160992.00;390.54;65144140.00;0.00;0.00;0.62;;;;;7.90;1.00;;;;;;2293178;60;1094;-85
2023/03/04 03:43:23;305420.00;1.02;527.24;0.00;0.00;0.62;;;;;8.00;1.00;;;;;;2293153;60;1595;-84
2023/03/04 03:45:50;227699.00;0.76;393.59;0.00;0.00;0.62;;;;;8.30;1.00;;;;;;2293130;60;1084;-85
2023/03/04 03:48:19;389126.00;1.30;671.11;0.00;0.00;0.62;;;;;8.20;1.00;;;;;;2293083;60;2006;-86
2023/03/04 03:50:45;231237.00;0.77;399.68;0.00;0.00;0.62;;;;;8.20;1.00;;;;;;2293130;60;1408;-86
2023/03/04 03:53:12;117082896.00;390.28;65013828.00;0.00;0.00;0.62;;;;;8.00;1.00;;;;;;2293120;60;1109;-87
2023/03/04 03:55:39;462364.00;1.54;797.05;0.00;0.00;0.62;;;;;7.80;1.00;;;;;;2293131;60;1102;-86
2023/03/04 03:58:06;482305.00;1.61;831.36;23777.00;0.08;41.81;;;;;7.90;1.00;;;;;;2293147;60;1058;-86
2023/03/04 04:00:33;327328.00;1.09;564.89;0.00;0.00;0.62;;;;;8.00;1.00;;;;;;2293134;60;1407;-86
2023/03/04 04:03:01;513180.00;1.71;884.52;30999.00;0.10;54.31;;;;;7.90;1.00;;;;;;2293078;60;1030;-88
2023/03/04 04:05:29;451945.00;1.51;779.13;0.00;0.00;0.62;;;;;7.80;1.00;;;;;;2293011;60;1114;-85
2023/03/04 04:07:56;469801.00;1.57;809.85;40976.00;0.14;71.58;;;;;7.50;1.00;;;;;;2293034;60;1917;-86
2023/03/04 04:10:23;424769.00;1.42;732.39;0.00;0.00;0.62;;;;;7.40;1.00;;;;;;2293079;60;1351;-87
2023/03/04 04:12:50;574549.00;1.92;990.29;0.00;0.00;0.62;;;;;7.50;1.00;;;;;;2293104;60;1002;-86
2023/03/04 04:15:17;305813.00;1.02;527.91;0.00;0.00;0.62;;;;;7.20;1.00;;;;;;2293043;60;1054;-87
2023/03/04 04:17:43;284758.00;0.95;491.72;0.00;0.00;0.62;;;;;7.30;1.00;;;;;;2293083;60;1073;-86
2023/03/04 04:20:11;400939.00;1.34;691.42;0.00;0.00;0.62;;;;;7.00;1.00;;;;;;2292999;60;1374;-86
2023/03/04 04:22:39;269013.00;0.90;464.65;0.00;0.00;0.62;;;;;6.90;1.00;;;;;;2293033;60;1125;-86
2023/03/04 04:25:09;339221.00;1.13;585.33;0.00;0.00;0.62;;;;;7.50;1.00;;;;;;2293105;60;985;-86
2023/03/04 04:27:36;695550.00;2.32;1199.52;26277.00;0.09;46.14;;;;;7.50;1.00;;;;;;2292919;60;2004;-85
2023/03/04 04:30:03;573798.00;1.91;989.00;0.00;0.00;0.62;;;;;6.60;1.00;;;;;;2292992;60;1217;-86
2023/03/04 04:32:30;628820.00;2.10;1084.01;0.00;0.00;0.62;;;;;6.60;1.00;;;;;;2292977;60;1081;-85
2023/03/04 04:34:57;219432.00;0.73;379.37;0.00;0.00;0.62;;;;;6.80;1.00;;;;;;2293018;60;1094;-86
2023/03/04 04:37:24;534515.00;1.78;921.27;21339.00;0.07;37.59;;;;;7.20;1.00;;;;;;2293057;60;1048;-86
2023/03/04 04:39:54;496462.00;1.65;855.73;0.00;0.00;0.62;;;;;7.20;1.00;;;;;;2293005;60;1374;-87
2023/03/04 04:42:21;488017.00;1.63;841.20;0.00;0.00;0.62;;;;;7.20;1.00;;;;;;2292987;60;1497;-87
2023/03/04 04:44:48;319262.00;1.06;551.03;37397.00;0.12;65.38;;;;;7.30;1.00;;;;;;2292944;60;1105;-87
2023/03/04 04:47:15;381605.00;1.27;658.18;0.00;0.00;0.62;;;;;7.60;1.00;;;;;;2292969;60;1999;-86
2023/03/04 04:49:41;361322.00;1.20;623.32;0.00;0.00;0.62;;;;;7.80;1.00;;;;;;2292914;60;2014;-85
2023/03/04 04:52:08;373388.00;1.24;644.06;0.00;0.00;0.62;;;;;7.90;1.00;;;;;;2292845;60;1035;-86
2023/03/04 04:54:35;422846.00;1.41;729.08;32413.00;0.11;56.76;;;;;8.00;1.00;;;;;;2292897;60;1113;-86
2023/03/04 04:57:03;501384.00;1.67;864.21;0.00;0.00;0.62;;;;;8.10;1.00;;;;;;2292931;60;1061;-86
2023/03/04 04:59:30;343188.00;1.14;592.15;0.00;0.00;0.62;;;;;8.00;1.00;;;;;;2292908;60;1382;-86
2023/03/04 05:01:58;340368.00;1.13;587.31;0.00;0.00;0.62;;;;;8.00;1.00;;;;;;2292951;60;1042;-84
2023/03/04 05:04:25;298096.00;0.99;514.65;0.00;0.00;0.62;;;;;8.30;1.00;;;;;;2292883;60;1996;-86
2023/03/04 05:06:52;335334.00;1.12;578.65;0.00;0.00;0.62;;;;;8.10;1.00;;;;;;2292886;60;1989;-85
2023/03/04 05:09:19;435975.00;1.45;751.66;0.00;0.00;0.62;;;;;7.60;1.00;;;;;;2292876;60;1317;-86
2023/03/04 05:11:46;228539.00;0.76;395.04;0.00;0.00;0.62;;;;;7.40;1.00;;;;;;2292932;60;2211;-86
2023/03/04 05:14:15;241922.00;0.81;418.06;0.00;0.00;0.62;;;;;7.20;1.00;;;;;;2292869;60;1086;-87
2023/03/04 05:16:41;438041.00;1.46;755.21;0.00;0.00;0.62;;;;;7.40;1.00;;;;;;2292804;60;1059;-87
2023/03/04 05:19:08;146548.00;0.49;253.86;0.00;0.00;0.62;;;;;7.40;1.00;;;;;;2292756;60;1736;-87
2023/03/04 05:21:35;314627.00;1.05;543.06;19879.00;0.07;35.06;;;;;7.60;1.00;;;;;;2292768;60;1123;-86
2023/03/04 05:24:02;446105.00;1.49;769.08;41212.00;0.14;71.99;;;;;7.20;1.00;;;;;;2292871;60;1126;-86
2023/03/04 05:26:29;282836.00;0.94;488.41;0.00;0.00;0.62;;;;;7.10;1.00;;;;;;2292860;60;988;-85
2023/03/04 05:28:56;437275.00;1.46;753.90;58011.00;0.19;101.04;;;;;6.70;1.00;;;;;;2292742;60;1923;-86
2023/03/04 05:31:24;337245.00;1.12;581.94;0.00;0.00;0.62;;;;;6.70;1.00;;;;;;2292823;60;1622;-86
2023/03/04 05:33:51;499325.00;1.66;860.66;0.00;0.00;0.62;;;;;6.90;1.00;;;;;;2292756;60;1744;-87
2023/03/04 05:36:19;500399.00;1.67;862.51;0.00;0.00;0.62;;;;;6.90;1.00;;;;;;2292851;60;1038;-87
2023/03/04 05:38:46;584569.00;1.95;1007.58;0.00;0.00;0.62;;;;;6.80;1.00;;;;;;2292764;60;1359;-87
2023/03/04 05:41:13;429009.00;1.43;739.68;0.00;0.00;0.62;;;;;6.90;1.00;;;;;;2292833;60;1010;-87
2023/03/04 05:43:41;398517.00;1.33;687.26;0.00;0.00;0.62;;;;;7.20;1.00;;;;;;2292809;60;988;-85
2023/03/04 05:46:09;391181.00;1.30;674.64;0.00;0.00;0.62;;;;;7.60;1.00;;;;;;2292808;60;1089;-85
2023/03/04 05:48:37;410334.00;1.37;707.57;0.00;0.00;0.62;;;;;7.30;1.00;;;;;;2292737;60;1918;-86
2023/03/04 05:51:04;498168.00;1.66;858.67;0.00;0.00;0.62;;;;;7.50;1.00;;;;;;2292709;60;976;-86
2023/03/04 05:53:31;441928.00;1.47;761.90;0.00;0.00;0.62;;;;;7.50;1.00;;;;;;2292764;60;1156;-86
2023/03/04 05:55:58;437188.00;1.46;753.75;18485.00;0.06;32.65;;;;;7.00;1.00;;;;;;2292747;60;917;-86
2023/03/04 05:58:25;503536.00;1.68;867.91;20537.00;0.07;36.20;;;;;6.60;1.00;;;;;;2292682;60;1379;-88
2023/03/04 06:00:52;343638.00;1.15;592.93;0.00;0.00;0.62;;;;;6.60;1.00;;;;;;2292788;60;1084;-86
2023/03/04 06:03:21;298454.00;0.99;515.26;0.00;0.00;0.62;;;;;6.20;1.00;;;;;;2292746;60;1042;-89
2023/03/04 06:05:56;401398.00;1.34;692.21;0.00;0.00;0.62;;;;;6.10;1.00;;;;;;2292695;60;1053;-86
2023/03/04 06:08:23;359285.00;1.20;619.82;0.00;0.00;0.62;;;;;6.10;1.00;;;;;;2292869;60;1990;-86
2023/03/04 06:10:53;305926.00;1.02;528.11;0.00;0.00;0.62;;;;;6.30;1.00;;;;;;2292592;60;1121;-87
2023/03/04 06:13:20;590989.00;1.97;1018.66;39978.00;0.13;69.85;;;;;5.90;1.00;;;;;;2292603;60;1121;-85
2023/03/04 06:18:17;677849.00;2.26;1168.85;0.00;0.00;0.62;;;;;6.40;1.00;;;;;;2286391;60;1262;-86
2023/03/04 06:23:17;376945.00;1.26;650.17;13894.00;0.05;24.69;;;;;6.50;1.00;;;;;;2290438;60;1414;-86
2023/03/04 06:25:44;537825.00;1.79;926.97;0.00;0.00;0.62;;;;;6.10;1.00;;;;;;2288649;60;1076;-87
2023/03/04 06:28:13;373648.00;1.25;644.51;0.00;0.00;0.62;;;;;5.60;1.00;;;;;;2288534;60;1993;-86
2023/03/04 06:30:40;1127364.00;3.76;1959.43;58821.00;0.20;102.44;;;;;5.80;1.00;;;;;;2288271;60;1292;-86
2023/03/04 06:33:08;874291.00;2.91;1511.01;62848.00;0.21;109.40;;;;;6.00;1.00;;;;;;2288430;60;1081;-87
2023/03/04 06:35:35;1002438.00;3.34;1736.79;29267.00;0.10;51.31;;;;;5.80;1.00;;;;;;2284912;60;1171;-86
2023/03/04 06:38:05;1169771.00;3.90;2035.66;0.00;0.00;0.62;;;;;5.60;1.00;;;;;;2288532;60;1031;-86
2023/03/04 06:40:36;1426565.00;4.76;2505.68;51033.00;0.17;88.97;;;;;5.30;1.00;;;;;;2288510;60;1337;-87
2023/03/04 06:45:35;1695932.00;5.65;3017.52;82666.00;0.28;143.64;;;;;5.30;1.00;;;;;;2290520;60;1412;-86
2023/03/04 06:48:02;1406500.00;4.69;2468.38;133111.00;0.44;230.69;;;;;5.20;1.00;;;;;;2288384;60;2014;-84
2023/03/04 06:50:29;1254418.00;4.18;2188.92;10024.00;0.03;17.99;;;;;4.80;1.00;;;;;;2294020;39;3617;-85
2023/03/04 06:52:57;1303881.00;4.35;2279.21;23701.00;0.08;41.68;;;;;5.20;1.00;;;;;;2293983;60;2009;-85
2023/03/04 06:55:24;1314412.00;4.38;2298.51;35145.00;0.12;61.49;;;;;5.30;1.00;;;;;;2292521;60;1045;-86
2023/03/04 06:57:53;1168303.00;3.89;2033.02;37060.00;0.12;64.80;;;;;5.80;1.00;;;;;;2292537;60;1153;-86
2023/03/04 07:00:22;1426574.00;4.76;2505.70;49424.00;0.16;86.19;;;;;5.80;1.00;;;;;;2292433;60;1304;-87
2023/03/04 07:02:49;1019263.00;3.40;1766.62;50441.00;0.17;87.95;;;;;6.10;1.00;;;;;;2292548;60;1001;-86
2023/03/04 07:05:16;1211683.00;4.04;2111.36;50171.00;0.17;87.48;;;;;6.40;1.00;;;;;;2292559;60;1113;-87
2023/03/04 07:07:43;882510.00;2.94;1525.42;27798.00;0.09;48.77;;;;;6.60;1.00;;;;;;2292534;60;1998;-86
2023/03/04 07:10:11;1596733.00;5.32;2826.50;146265.00;0.49;253.37;;;;;5.90;1.00;;;;;;2292472;60;1380;-86
2023/03/04 07:12:38;1059420.00;3.53;1838.00;27801.00;0.09;48.78;;;;;6.10;1.00;;;;;;2292483;60;1130;-86
2023/03/04 07:15:07;995718.00;3.32;1724.89;51546.00;0.17;89.86;;;;;6.40;1.00;;;;;;2292480;60;1093;-85
2023/03/04 07:17:34;1391023.00;4.64;2439.69;49203.00;0.16;85.81;;;;;5.80;1.00;;;;;;2292378;60;1047;-86
2023/03/04 07:20:01;1007816.00;3.36;1746.32;54873.00;0.18;95.61;;;;;6.20;1.00;;;;;;2292499;60;1289;-87
2023/03/04 07:22:28;1590669.00;5.30;2814.92;165157.00;0.55;285.92;;;;;6.60;1.00;;;;;;2292475;60;1231;-86
2023/03/04 07:24:55;941125.00;3.14;1628.47;45406.00;0.15;79.24;;;;;7.00;1.00;;;;;;2292372;60;1011;-88
2023/03/04 07:27:22;1162899.00;3.88;2023.28;28531.00;0.10;50.04;;;;;7.30;1.00;;;;;;2292411;60;992;-87
2023/03/04 07:29:49;1059788.00;3.53;1838.66;20831.00;0.07;36.71;;;;;7.80;1.00;;;;;;2292357;60;1984;-85
2023/03/04 07:32:20;1492544.00;4.98;2629.10;80865.00;0.27;140.53;;;;;8.20;1.00;;;;;;2304870;56;3770;-86
2023/03/04 07:34:47;1472789.00;4.91;2592.02;52455.00;0.17;91.43;;;;;8.20;1.00;;;;;;2288251;60;1038;-86
2023/03/04 07:37:14;1188861.00;3.96;2070.09;36662.00;0.12;64.11;;;;;8.10;1.00;;;;;;2288269;60;929;-87
2023/03/04 07:39:40;1255318.00;4.18;2190.56;38343.00;0.13;67.02;;;;;7.90;1.00;;;;;;2288218;60;1308;-87
2023/03/04 07:42:07;1096833.00;3.66;1904.76;55782.00;0.19;97.18;;;;;7.70;1.00;;;;;;2288935;60;1025;-86
2023/03/04 07:44:34;1058404.00;3.53;1836.19;35918.00;0.12;62.83;;;;;7.70;1.00;;;;;;2289022;60;1088;-88
2023/03/04 07:47:01;1340143.00;4.47;2345.76;50983.00;0.17;88.89;;;;;8.10;1.00;;;;;;2289053;60;1717;-88
2023/03/04 07:49:34;1439881.00;4.80;2530.50;32548.00;0.11;56.99;;;;;8.10;1.00;;;;;;2288918;60;1999;-86
2023/03/04 07:54:35;1481449.00;4.94;2608.26;128002.00;0.43;221.88;;;;;8.50;1.00;;;;;;2290738;60;1333;-86
2023/03/04 07:57:01;1213455.00;4.04;2114.57;0.00;0.00;0.62;;;;;8.50;1.00;;;;;;2288828;60;1494;-87
2023/03/04 07:59:28;966445.00;3.22;1673.13;35368.00;0.12;61.87;;;;;8.90;1.00;;;;;;2288794;60;1358;-88
2023/03/04 08:01:55;1075429.00;3.58;1866.54;56586.00;0.19;98.57;;;;;9.10;1.00;;;;;;2288814;60;1025;-87
2023/03/04 08:04:22;1067568.00;3.56;1852.52;55783.00;0.19;97.19;;;;;8.90;1.00;;;;;;2288785;60;1115;-85
2023/03/04 08:06:50;1290869.00;4.30;2255.40;29189.00;0.10;51.18;;;;;8.70;1.00;;;;;;2288863;60;1094;-87
2023/03/04 08:09:17;1468896.00;4.90;2584.73;96881.00;0.32;168.19;;;;;8.80;1.00;;;;;;2288805;60;1935;-86
2023/03/04 08:11:44;1696068.00;5.65;3017.79;117189.00;0.39;203.23;;;;;8.40;1.00;;;;;;2288919;60;983;-85
2023/03/04 08:14:11;974073.00;3.25;1686.61;69473.00;0.23;120.85;;;;;8.70;1.00;;;;;;2288869;60;1134;-87
2023/03/04 08:16:38;1272914.00;4.24;2222.62;39313.00;0.13;68.70;;;;;8.20;1.00;;;;;;2288777;60;1042;-88
2023/03/04 08:19:07;1430685.00;4.77;2513.36;86800.00;0.29;150.78;;;;;8.00;1.00;;;;;;2288904;60;1347;-87
2023/03/04 08:21:34;1131786.00;3.77;1967.36;49145.00;0.16;85.71;;;;;7.30;1.00;;;;;;2288801;60;1541;-87
2023/03/04 08:24:06;1270514.00;4.24;2218.24;60344.00;0.20;105.07;;;;;7.00;1.00;;;;;;2288847;60;927;-87
2023/03/04 08:26:40;1330611.00;4.44;2328.24;105771.00;0.35;183.53;;;;;6.70;1.00;;;;;;2288874;60;1140;-86
2023/03/04 08:29:07;1465720.00;4.89;2578.78;198376.00;0.66;343.13;;;;;6.60;1.00;;;;;;2288692;60;1914;-87
2023/03/04 08:31:34;1397926.00;4.66;2452.48;115052.00;0.38;199.55;;;;;6.50;1.00;;;;;;2288877;60;1045;-87
2023/03/04 08:34:03;1523790.00;5.08;2687.97;128673.00;0.43;223.04;;;;;6.60;1.00;;;;;;2288839;60;1105;-85
2023/03/04 08:36:30;1256529.00;4.19;2192.77;115863.00;0.39;200.95;;;;;6.70;1.00;;;;;;2288890;60;1138;-85
2023/03/04 08:38:57;1743511.00;5.81;3110.28;98413.00;0.33;170.83;;;;;6.20;1.00;;;;;;2288774;60;1401;-85
2023/03/04 08:41:26;2216375.00;7.39;4078.49;315652.00;1.05;544.82;;;;;5.80;1.00;;;;;;2288876;60;926;-85
2023/03/04 08:43:53;1610994.00;5.37;2853.77;120771.00;0.40;209.41;;;;;5.30;1.00;;;;;;2288779;60;1640;-84
2023/03/04 08:46:20;1397360.00;4.66;2451.43;130576.00;0.44;226.32;;;;;5.20;1.00;;;;;;2288816;60;1114;-86
2023/03/04 08:48:46;1582105.00;5.27;2798.59;172413.00;0.57;298.42;;;;;4.90;1.00;;;;;;2288714;60;1911;-87
2023/03/04 08:51:15;944644.00;3.15;1634.67;100026.00;0.33;173.62;;;;;4.20;1.00;;;;;;2288883;60;898;-87
2023/03/04 08:53:43;922657.00;3.08;1595.95;113807.00;0.38;197.40;;;;;3.70;1.00;;;;;;2306768;40;3638;-86
2023/03/04 08:56:11;915322.00;3.05;1583.05;139145.00;0.46;241.10;;;;;3.90;1.00;;;;;;2288792;60;1093;-87
2023/03/04 08:58:40;487986.00;1.63;841.14;0.00;0.00;0.62;;;;;4.00;1.00;;;;;;2288667;60;1997;-83
2023/03/04 09:01:09;339514.00;1.13;585.84;0.00;0.00;0.62;;;;;4.30;1.00;;;;;;2288790;60;1026;-85
2023/03/04 09:03:37;222418.00;0.74;384.50;0.00;0.00;0.62;;;;;4.40;1.00;;;;;;2288782;60;1075;-86
2023/03/04 09:06:06;629879.00;2.10;1085.84;16006.00;0.05;28.35;;;;;4.30;1.00;;;;;;2292107;55;3749;-85
2023/03/04 09:08:34;385782.00;1.29;665.36;0.00;0.00;0.62;;;;;4.30;1.00;;;;;;2292344;60;2005;-87
2023/03/04 09:11:01;574964.00;1.92;991.01;0.00;0.00;0.62;;;;;4.30;1.00;;;;;;2300502;40;3596;-85
2023/03/04 09:13:29;377555.00;1.26;651.22;0.00;0.00;0.62;;;;;4.30;1.00;;;;;;2288745;60;1074;-86
2023/03/04 09:15:58;393572.00;1.31;678.76;0.00;0.00;0.62;;;;;4.10;1.00;;;;;;2288632;60;2080;-85
2023/03/04 09:18:26;425156.00;1.42;733.06;0.00;0.00;0.62;;;;;4.40;1.00;;;;;;2288548;60;1359;-85
2023/03/04 09:20:54;458139.00;1.53;789.78;0.00;0.00;0.62;;;;;4.70;1.00;;;;;;2288582;60;1600;-85
2023/03/04 09:23:21;647620.00;2.16;1116.52;59339.00;0.20;103.33;;;;;5.00;1.00;;;;;;2288514;60;1039;-87
2023/03/04 09:25:48;379543.00;1.27;654.64;0.00;0.00;0.62;;;;;5.10;1.00;;;;;;2288576;60;1083;-85
2023/03/04 09:28:16;255879.00;0.85;442.06;0.00;0.00;0.62;;;;;4.90;1.00;;;;;;2288554;60;1910;-86
2023/03/04 09:30:43;524136.00;1.75;903.39;50444.00;0.17;87.95;;;;;4.60;1.00;;;;;;2288660;60;1290;-85
2023/03/04 09:33:12;167794.00;0.56;290.47;0.00;0.00;0.62;;;;;4.40;1.00;;;;;;2288574;60;1041;-86
2023/03/04 09:35:39;518415.00;1.73;893.53;39227.00;0.13;68.55;;;;;4.40;1.00;;;;;;2288523;60;1114;-86
2023/03/04 09:38:06;390811.00;1.30;674.01;0.00;0.00;0.62;;;;;4.60;1.00;;;;;;2288445;60;957;-87
2023/03/04 09:40:40;391935.00;1.31;675.94;0.00;0.00;0.62;;;;;4.30;1.00;;;;;;2288296;60;2118;-85
2023/03/04 09:43:14;500209.00;1.67;862.18;0.00;0.00;0.62;;;;;4.80;1.00;;;;;;2288417;60;2041;-86
2023/03/04 09:45:47;301248.00;1.00;520.07;0.00;0.00;0.62;;;;;5.30;1.00;;;;;;2288417;60;1015;-86
2023/03/04 09:48:19;383362.00;1.28;661.20;0.00;0.00;0.62;;;;;5.30;1.00;;;;;;2288394;60;1915;-87
2023/03/04 09:50:59;393224.00;1.31;678.16;0.00;0.00;0.62;;;;;5.50;1.00;;;;;;2288382;60;1285;-86